Time;durP1;ratioP1;P1;durP2;ratioP2;P2;SDS_P1;SDS_P2;PMS_P1;PMS_P2;Temp;Humidity;BMP_temperature;BMP_pressure;BME280_temperature;BME280_humidity;BME280_pressure;Samples;Min_cycle;Max_cycle;Signal;HPM_P1;HPM_P2
2022/01/08 00:01:24;;;;;;;5.15;2.60;;;;;;;-0.72;98.49;95257.09;5105749;27;20041;-77
2022/01/08 00:03:51;;;;;;;4.43;2.75;;;;;;;-0.73;97.85;95249.56;5107094;28;20058;-76
2022/01/08 00:06:17;;;;;;;4.10;2.60;;;;;;;-0.72;97.58;95240.78;5099578;28;20051;-76
2022/01/08 00:08:43;;;;;;;4.55;2.33;;;;;;;-0.72;97.58;95235.59;5103447;28;20445;-77
2022/01/08 00:11:13;;;;;;;3.60;2.22;;;;;;;-0.80;97.58;95228.09;5105173;28;20047;-76
2022/01/08 00:13:40;;;;;;;5.22;2.80;;;;;;;-0.84;97.74;95221.75;5111539;28;20035;-76
2022/01/08 00:16:06;;;;;;;4.15;2.60;;;;;;;-0.92;97.90;95221.00;5096191;28;20082;-77
2022/01/08 00:18:32;;;;;;;5.75;2.60;;;;;;;-0.98;98.16;95232.13;5106162;27;20074;-77
2022/01/08 00:20:57;;;;;;;5.18;2.55;;;;;;;-0.91;97.78;95227.72;5101498;27;20131;-77
2022/01/08 00:23:23;;;;;;;5.30;2.53;;;;;;;-0.90;97.40;95218.97;5117109;27;20489;-77
2022/01/08 00:25:49;;;;;;;5.55;3.10;;;;;;;-0.84;97.35;95221.75;5101714;28;20058;-76
2022/01/08 00:28:15;;;;;;;4.63;2.45;;;;;;;-0.84;97.46;95221.75;5096224;28;20506;-76
2022/01/08 00:30:40;;;;;;;4.97;2.60;;;;;;;-0.88;97.44;95211.03;5097676;27;20039;-76
2022/01/08 00:33:06;;;;;;;6.25;2.70;;;;;;;-0.94;97.47;95207.47;5102957;27;20036;-77
2022/01/08 00:35:33;;;;;;;5.63;2.85;;;;;;;-0.96;97.85;95204.31;5093144;28;20497;-76
2022/01/08 00:37:59;;;;;;;5.07;2.80;;;;;;;-1.00;97.71;95203.13;5092719;28;20093;-77
2022/01/08 00:40:24;;;;;;;4.60;2.60;;;;;;;-0.98;97.70;95201.13;5110086;28;20048;-77
2022/01/08 00:42:50;;;;;;;5.03;2.78;;;;;;;-1.04;97.86;95204.53;5094053;28;20036;-77
2022/01/08 00:45:16;;;;;;;6.57;2.88;;;;;;;-1.10;97.59;95192.44;5116482;27;20039;-77
2022/01/08 00:47:41;;;;;;;6.35;2.72;;;;;;;-1.19;98.04;95193.63;5090288;28;20044;-77
2022/01/08 00:50:07;;;;;;;5.75;2.72;;;;;;;-1.23;97.83;95194.03;5101587;28;20121;-76
2022/01/08 00:52:33;;;;;;;5.47;2.60;;;;;;;-1.25;98.40;95185.72;5108371;27;20092;-77
2022/01/08 00:54:59;;;;;;;4.72;2.53;;;;;;;-1.29;98.67;95184.53;5121264;27;20051;-76
2022/01/08 00:57:24;;;;;;;4.53;2.58;;;;;;;-1.32;98.65;95184.94;5100727;28;20413;-77
2022/01/08 00:59:50;;;;;;;4.85;2.70;;;;;;;-1.41;98.37;95180.97;5102148;28;20459;-77
2022/01/08 01:02:15;;;;;;;6.82;2.70;;;;;;;-1.43;99.12;95182.97;5114327;27;20056;-77
2022/01/08 01:04:41;;;;;;;6.35;2.90;;;;;;;-1.46;99.08;95179.00;5110536;27;20544;-77
2022/01/08 01:07:06;;;;;;;5.05;2.63;;;;;;;-1.61;99.09;95175.84;5114181;27;20068;-77
2022/01/08 01:09:32;;;;;;;5.75;3.00;;;;;;;-2.22;99.85;95169.16;5094658;28;20084;-77
2022/01/08 01:11:58;;;;;;;5.43;2.80;;;;;;;-2.07;100.00;95167.16;5096734;28;20078;-77
2022/01/08 01:14:27;;;;;;;4.82;2.40;;;;;;;-2.09;100.00;95157.03;5094292;28;20051;-77
2022/01/08 01:16:52;;;;;;;4.85;2.58;;;;;;;-2.78;100.00;95150.41;5101106;28;20097;-77
2022/01/08 01:19:18;;;;;;;3.97;2.28;;;;;;;-3.34;100.00;95152.19;5091835;28;20048;-77
2022/01/08 01:21:44;;;;;;;4.63;2.33;;;;;;;-3.50;100.00;95147.38;5115795;27;20039;-77
2022/01/08 01:24:15;;;;;;;4.78;2.72;;;;;;;-3.21;100.00;95145.50;5113410;27;20469;-77
2022/01/08 01:26:55;;;;;;;5.18;2.20;;;;;;;-3.01;100.00;95141.22;5089786;27;20035;-77
2022/01/08 01:48:20;;;;;;;5.20;2.33;;;;;;;-3.54;100.00;95115.28;5119778;27;20112;-77
2022/01/08 01:50:47;;;;;;;4.75;2.72;;;;;;;-2.93;100.00;95111.13;5116101;27;20462;-76
2022/01/08 01:53:13;;;;;;;4.25;2.30;;;;;;;-2.86;100.00;95106.81;5097438;28;20048;-77
2022/01/08 01:55:40;;;;;;;5.82;2.53;;;;;;;-3.18;100.00;95101.38;5108654;28;20043;-77
2022/01/08 01:58:06;;;;;;;7.95;2.42;;;;;;;-3.21;100.00;95089.69;5096118;28;20120;-76
2022/01/08 02:00:33;;;;;;;5.47;2.63;;;;;;;-3.18;100.00;95093.66;5110876;27;20477;-77
2022/01/08 02:02:59;;;;;;;4.55;2.20;;;;;;;-2.91;100.00;95089.38;5099398;27;20036;-76
2022/01/08 02:05:26;;;;;;;5.85;2.78;;;;;;;-3.19;100.00;95081.75;5099201;28;20092;-77
2022/01/08 02:07:55;;;;;;;5.65;2.83;;;;;;;-3.08;100.00;95073.47;5115110;27;20040;-77
2022/01/08 02:10:22;;;;;;;4.40;2.63;;;;;;;-2.91;100.00;95067.97;5103988;28;20058;-76
2022/01/08 02:12:47;;;;;;;4.85;2.55;;;;;;;-2.94;100.00;95065.78;5094966;28;20047;-77
2022/01/08 02:15:13;;;;;;;5.15;2.67;;;;;;;-2.93;100.00;95065.59;5108467;28;20044;-78
2022/01/08 02:17:39;;;;;;;5.57;2.65;;;;;;;-3.02;100.00;95057.25;5095015;28;20043;-77
2022/01/08 02:20:05;;;;;;;4.47;2.20;;;;;;;-3.02;100.00;95062.41;5096532;28;21678;-77
2022/01/08 02:22:31;;;;;;;5.30;2.35;;;;;;;-2.94;100.00;95058.06;5116847;27;20039;-77
2022/01/08 02:24:57;;;;;;;5.32;2.55;;;;;;;-3.23;100.00;95054.81;5092716;28;20122;-77
2022/01/08 02:27:22;;;;;;;5.45;2.65;;;;;;;-3.06;100.00;95055.25;5105400;27;20046;-77
2022/01/08 02:29:49;;;;;;;7.45;2.28;;;;;;;-2.97;100.00;95049.75;5111025;27;20085;-78
2022/01/08 02:32:19;;;;;;;4.25;2.38;;;;;;;-3.31;100.00;95048.84;5096591;28;20040;-77
2022/01/08 02:34:47;;;;;;;5.22;2.60;;;;;;;-3.28;100.00;95032.25;5071337;28;20113;-77
2022/01/08 02:37:17;;;;;;;5.35;2.72;;;;;;;-3.05;100.00;95047.34;5097871;28;20047;-77
2022/01/08 02:39:44;;;;;;;4.22;2.80;;;;;;;-3.07;100.00;95031.31;5107442;28;20051;-76
2022/01/08 02:42:14;;;;;;;4.38;2.60;;;;;;;-3.07;100.00;95023.59;5112047;27;20031;-75
2022/01/08 02:44:41;;;;;;;10.77;2.38;;;;;;;-3.06;100.00;95021.78;5110736;28;20486;-75
2022/01/08 02:47:07;;;;;;;4.82;2.70;;;;;;;-3.13;100.00;95009.72;5098217;28;20047;-75
2022/01/08 02:49:34;;;;;;;5.72;2.40;;;;;;;-3.08;100.00;95005.75;5110590;28;20516;-76
2022/01/08 02:51:59;;;;;;;5.93;2.78;;;;;;;-3.10;100.00;95003.38;5106283;28;20058;-76
2022/01/08 02:54:25;;;;;;;5.30;2.80;;;;;;;-3.12;100.00;95005.34;5098084;28;20493;-76
2022/01/08 02:56:50;;;;;;;6.70;2.58;;;;;;;-3.21;100.00;94985.94;5097899;28;20039;-76
2022/01/08 02:59:17;;;;;;;5.07;2.95;;;;;;;-3.18;100.00;94994.06;5098214;28;20036;-76
2022/01/08 03:01:43;;;;;;;5.40;2.70;;;;;;;-3.23;100.00;94987.91;5095009;28;20043;-77
2022/01/08 03:04:09;;;;;;;4.55;2.60;;;;;;;-3.24;100.00;94986.34;5115459;28;20103;-76
2022/01/08 03:06:35;;;;;;;6.70;3.08;;;;;;;-3.24;100.00;94986.34;5105277;28;20042;-76
2022/01/08 03:09:02;;;;;;;5.32;3.00;;;;;;;-3.27;100.00;94976.44;5115294;28;20568;-76
2022/01/08 03:11:27;;;;;;;6.30;3.30;;;;;;;-3.28;100.00;94980.00;5113561;28;20047;-76
2022/01/08 03:13:53;;;;;;;5.97;2.88;;;;;;;-3.36;100.00;94963.75;5101004;28;20036;-77
2022/01/08 03:16:18;;;;;;;4.93;2.75;;;;;;;-3.37;100.00;94962.16;5102538;28;20043;-77
2022/01/08 03:18:47;;;;;;;7.97;3.25;;;;;;;-3.37;100.00;94962.16;5088676;28;20040;-76
2022/01/08 03:21:16;;;;;;;6.07;3.50;;;;;;;-3.37;100.00;94951.88;5100743;28;20047;-76
2022/01/08 03:23:50;;;;;;;7.32;3.30;;;;;;;-3.41;100.00;94945.53;5116246;28;20039;-76
2022/01/08 03:26:17;;;;;;;5.20;2.67;;;;;;;-3.42;100.00;94950.88;5100712;28;20105;-76
2022/01/08 03:28:44;;;;;;;5.53;2.80;;;;;;;-3.45;100.00;94948.69;5100746;28;20038;-76
2022/01/08 03:31:11;;;;;;;6.28;3.05;;;;;;;-3.47;100.00;94951.47;5109542;28;20405;-76
2022/01/08 03:33:37;;;;;;;5.18;2.80;;;;;;;-3.50;100.00;94946.72;5109662;28;20118;-76
2022/01/08 03:36:03;;;;;;;5.05;2.67;;;;;;;-3.50;100.00;94931.28;5109429;28;20528;-76
2022/01/08 03:38:29;;;;;;;7.13;3.67;;;;;;;-3.53;100.00;94942.75;5087718;28;20044;-76
2022/01/08 03:40:55;;;;;;;4.53;2.30;;;;;;;-3.53;100.00;94936.81;5097296;28;20386;-76
2022/01/08 03:43:21;;;;;;;4.18;2.50;;;;;;;-3.54;100.00;94930.06;5107302;28;20035;-76
2022/01/08 03:45:47;;;;;;;4.85;2.55;;;;;;;-3.56;100.00;94938.00;5104802;28;20503;-76
2022/01/08 03:48:43;;;;;;;6.35;2.75;;;;;;;-3.59;100.00;94927.28;5110323;28;20040;-76
2022/01/08 03:51:09;;;;;;;5.88;2.63;;;;;;;-3.67;100.00;94918.75;5102755;28;20101;-76
2022/01/08 03:53:34;;;;;;;5.15;3.10;;;;;;;-3.64;100.00;94919.38;5103443;28;20054;-76
2022/01/08 03:56:00;;;;;;;8.07;3.20;;;;;;;-3.66;100.00;94912.63;5106008;28;20678;-76
2022/01/08 03:58:27;;;;;;;5.80;2.90;;;;;;;-3.64;100.00;94925.31;5107466;27;20040;-76
2022/01/08 04:00:54;;;;;;;5.07;3.05;;;;;;;-3.68;100.00;94914.63;5108282;27;20089;-76
2022/01/08 04:03:19;;;;;;;10.63;2.90;;;;;;;-3.68;100.00;94908.66;5097889;28;20036;-76
2022/01/08 04:05:49;;;;;;;6.75;3.03;;;;;;;-3.73;100.00;94901.53;5096917;28;20079;-76
2022/01/08 04:08:17;;;;;;;5.15;2.90;;;;;;;-3.72;100.00;94904.91;5115478;27;20127;-78
2022/01/08 04:10:42;;;;;;;7.22;3.55;;;;;;;-3.74;100.00;94899.94;5098650;27;20454;-78
2022/01/08 04:13:15;;;;;;;5.53;3.13;;;;;;;-3.72;100.00;94892.84;5091055;28;20040;-77
2022/01/08 04:15:46;;;;;;;6.50;3.53;;;;;;;-3.70;100.00;94888.28;5088147;28;20040;-76
2022/01/08 04:18:12;;;;;;;5.28;2.90;;;;;;;-3.71;100.00;94883.34;5113025;27;20046;-77
2022/01/08 04:21:38;;;;;;;6.05;2.70;;;;;;;-3.67;100.00;94880.19;5109991;27;20049;-77
2022/01/08 04:23:32;;;;;;;4.22;2.15;;;;;;;-3.69;100.00;94887.31;5088075;28;20063;-77
2022/01/08 04:25:57;;;;;;;5.47;2.80;;;;;;;-3.65;100.00;94877.41;5114457;27;20044;-77
2022/01/08 04:28:22;;;;;;;3.97;2.42;;;;;;;-3.64;100.00;94866.16;5103481;28;20500;-77
2022/01/08 04:30:48;;;;;;;4.20;2.30;;;;;;;-3.57;100.00;94873.88;5099767;28;20039;-76
2022/01/08 04:33:14;;;;;;;4.32;2.55;;;;;;;-3.61;100.00;94867.53;5089535;28;20032;-77
2022/01/08 04:35:39;;;;;;;3.72;2.08;;;;;;;-3.59;100.00;94862.97;5092415;28;20040;-77
2022/01/08 04:38:05;;;;;;;3.33;2.10;;;;;;;-3.56;100.00;94862.59;5093752;28;20133;-76
2022/01/08 04:40:32;;;;;;;4.53;2.22;;;;;;;-3.53;100.00;94864.78;5099040;27;20530;-77
2022/01/08 04:42:59;;;;;;;3.85;2.40;;;;;;;-3.51;100.00;94858.44;5074081;28;20562;-76
2022/01/08 04:45:29;;;;;;;3.58;2.05;;;;;;;-3.49;100.00;94861.63;5109933;27;20405;-76
2022/01/08 04:47:55;;;;;;;4.32;2.08;;;;;;;-3.43;100.00;94860.03;5100689;27;20115;-76
2022/01/08 04:50:21;;;;;;;4.95;2.25;;;;;;;-3.44;100.00;94853.31;5104638;28;20047;-76
2022/01/08 04:52:46;;;;;;;3.78;2.28;;;;;;;-3.44;100.00;94855.88;5105955;28;20050;-76
2022/01/08 04:55:12;;;;;;;3.65;2.42;;;;;;;-3.42;100.00;94856.50;5109542;28;20114;-77
2022/01/08 04:57:37;;;;;;;4.60;2.10;;;;;;;-3.38;100.00;94860.22;5108709;27;20040;-77
2022/01/08 05:00:04;;;;;;;5.22;2.03;;;;;;;-3.36;100.00;94854.88;5121772;27;20075;-77
2022/01/08 05:02:29;;;;;;;3.83;1.90;;;;;;;-3.36;100.00;94860.03;5128655;27;20043;-77
2022/01/08 05:04:55;;;;;;;2.70;1.92;;;;;;;-3.33;100.00;94859.66;5100622;27;20152;-76
2022/01/08 05:07:21;;;;;;;4.68;1.60;;;;;;;-3.29;100.00;94870.31;5109686;27;20043;-77
2022/01/08 05:09:46;;;;;;;2.95;1.67;;;;;;;-3.23;100.00;94879.81;5094325;28;20048;-77
2022/01/08 05:12:12;;;;;;;2.42;1.55;;;;;;;-3.20;100.00;94887.16;5096561;28;20043;-77
2022/01/08 05:14:37;;;;;;;2.50;1.35;;;;;;;-3.29;100.00;94907.13;5108538;28;20055;-77
2022/01/08 05:17:03;;;;;;;1.33;1.15;;;;;;;-3.21;100.00;94929.31;5116370;27;20113;-76
2022/01/08 05:19:50;;;;;;;3.67;1.70;;;;;;;-3.25;100.00;94923.75;5107104;28;20065;-76
2022/01/08 05:22:28;;;;;;;3.10;1.60;;;;;;;-3.23;100.00;94923.56;5089770;28;20051;-76
2022/01/08 05:24:55;;;;;;;2.30;1.40;;;;;;;-2.82;100.00;94932.88;5098742;27;20038;-76
2022/01/08 05:27:21;;;;;;;9.13;2.00;;;;;;;-2.98;100.00;94911.69;5118522;27;20493;-76
2022/01/08 05:29:49;;;;;;;3.05;1.65;;;;;;;-2.78;100.00;94898.00;5092990;28;20044;-76
2022/01/08 05:32:18;;;;;;;2.30;1.40;;;;;;;-2.73;100.00;94900.78;5086025;28;20108;-76
2022/01/08 05:34:45;;;;;;;2.47;1.70;;;;;;;-2.59;100.00;94901.53;5101624;28;20040;-77
2022/01/08 05:37:11;;;;;;;1.83;1.30;;;;;;;-2.56;100.00;94895.19;5105534;27;20039;-76
2022/01/08 05:39:37;;;;;;;2.45;1.38;;;;;;;-2.52;100.00;94901.53;5101421;27;20402;-76
2022/01/08 05:42:03;;;;;;;4.00;1.50;;;;;;;-2.50;100.00;94900.34;5097933;28;20047;-76
2022/01/08 05:44:28;;;;;;;1.42;1.27;;;;;;;-2.46;100.00;94898.13;5094068;28;20036;-76
2022/01/08 05:46:54;;;;;;;1.73;1.35;;;;;;;-2.46;100.00;94898.13;5109536;27;20047;-76
2022/01/08 05:49:20;;;;;;;3.67;1.45;;;;;;;-2.48;100.00;94900.13;5103969;27;20161;-76
2022/01/08 05:51:45;;;;;;;1.58;1.10;;;;;;;-2.49;100.00;94898.56;5103158;28;20043;-76
2022/01/08 05:54:10;;;;;;;2.10;1.25;;;;;;;-2.49;100.00;94901.13;5108834;28;20089;-76
2022/01/08 05:56:36;;;;;;;3.38;1.50;;;;;;;-2.45;100.00;94897.16;5101087;27;20047;-76
2022/01/08 05:59:03;;;;;;;1.30;1.00;;;;;;;-2.40;100.00;94909.44;5112909;27;20043;-76
2022/01/08 06:01:28;;;;;;;1.67;1.00;;;;;;;-2.33;99.81;94905.84;5087342;28;20448;-75
2022/01/08 06:03:54;;;;;;;2.55;1.67;;;;;;;-2.28;99.87;94924.06;5095547;28;20127;-75
2022/01/08 06:06:19;;;;;;;1.77;1.00;;;;;;;-2.27;99.68;94925.66;5107859;28;20058;-75
2022/01/08 06:08:45;;;;;;;2.00;1.20;;;;;;;-2.20;99.66;94919.69;5106363;27;20031;-75
2022/01/08 06:11:10;;;;;;;1.92;1.13;;;;;;;-2.19;100.00;94921.25;5114504;27;20453;-73
2022/01/08 06:13:36;;;;;;;2.28;1.40;;;;;;;-2.17;100.00;94912.34;5089059;28;20626;-76
2022/01/08 06:16:01;;;;;;;1.50;1.10;;;;;;;-2.15;100.00;94912.13;5093889;28;20048;-76
2022/01/08 06:18:27;;;;;;;1.58;1.17;;;;;;;-2.10;100.00;94901.97;5113476;27;20070;-75
2022/01/08 06:20:55;;;;;;;3.33;1.30;;;;;;;-2.11;100.00;94905.56;5111063;27;20505;-75
2022/01/08 06:23:22;;;;;;;2.42;1.13;;;;;;;-2.07;100.00;94904.16;5102170;28;20040;-75
2022/01/08 06:25:48;;;;;;;1.13;1.00;;;;;;;-2.06;100.00;94905.75;5088567;28;20399;-76
2022/01/08 06:28:13;;;;;;;3.08;1.20;;;;;;;-1.99;100.00;94901.34;5099816;27;20051;-76
2022/01/08 06:30:39;;;;;;;2.05;1.13;;;;;;;-1.96;100.00;94900.94;5117823;27;20039;-75
2022/01/08 06:33:04;;;;;;;2.35;1.52;;;;;;;-1.96;100.00;94895.78;5103829;27;20441;-75
2022/01/08 06:35:30;;;;;;;1.67;1.27;;;;;;;-1.93;100.00;94895.34;5111258;27;20047;-75
2022/01/08 06:37:55;;;;;;;1.25;1.00;;;;;;;-1.89;100.00;94892.38;5109725;27;20053;-75
2022/01/08 06:40:21;;;;;;;1.33;1.05;;;;;;;-1.92;100.00;94902.09;5109111;27;20054;-76
2022/01/08 06:42:46;;;;;;;2.90;1.20;;;;;;;-1.90;100.00;94898.53;5107038;28;20036;-76
2022/01/08 06:45:12;;;;;;;2.38;1.10;;;;;;;-1.84;100.00;94887.38;5107614;28;20420;-75
2022/01/08 06:47:38;;;;;;;1.17;0.82;;;;;;;-1.81;100.00;94892.13;5093665;28;20036;-75
2022/01/08 06:50:04;;;;;;;2.17;1.20;;;;;;;-1.79;100.00;94897.88;5092396;28;20708;-76
2022/01/08 06:52:31;;;;;;;1.05;0.88;;;;;;;-1.72;100.00;94900.41;5089667;28;20138;-75
2022/01/08 06:54:57;;;;;;;1.85;1.17;;;;;;;-1.67;99.92;94887.69;5102491;28;20497;-75
2022/01/08 06:57:23;;;;;;;2.08;0.90;;;;;;;-1.61;99.33;94887.66;5088939;28;20047;-75
2022/01/08 06:59:48;;;;;;;1.50;1.02;;;;;;;-1.58;99.20;94892.41;5098306;28;20591;-75
2022/01/08 07:02:14;;;;;;;1.13;0.80;;;;;;;-1.56;98.33;94902.53;5091725;28;20451;-76
2022/01/08 07:04:39;;;;;;;1.42;0.70;;;;;;;-1.51;97.30;94907.84;5101458;28;20040;-76
2022/01/08 07:07:04;;;;;;;1.13;0.73;;;;;;;-1.44;97.23;94907.81;5102374;28;20043;-76
2022/01/08 07:09:30;;;;;;;3.10;1.13;;;;;;;-1.43;97.42;94909.38;5092625;28;20545;-76
2022/01/08 07:11:55;;;;;;;2.13;0.88;;;;;;;-1.36;95.87;94911.94;5107878;28;20047;-76
2022/01/08 07:14:21;;;;;;;2.70;1.40;;;;;;;-1.37;96.35;94915.50;5088012;28;20040;-76
2022/01/08 07:16:48;;;;;;;1.58;0.80;;;;;;;-1.37;95.67;94910.34;5108455;28;20126;-76
2022/01/08 07:19:14;;;;;;;2.17;0.98;;;;;;;-1.35;95.54;94922.06;5090880;28;20047;-76
2022/01/08 07:21:40;;;;;;;1.52;0.98;;;;;;;-1.28;94.55;94917.63;5099835;28;20044;-76
2022/01/08 07:24:05;;;;;;;2.88;1.10;;;;;;;-1.26;94.06;94920.78;5097252;28;20043;-76
2022/01/08 07:26:31;;;;;;;2.25;0.90;;;;;;;-1.18;93.99;94931.84;5092641;28;20513;-75
2022/01/08 07:28:56;;;;;;;1.67;0.88;;;;;;;-1.10;93.58;94939.34;5104012;28;20462;-75
2022/01/08 07:31:22;;;;;;;1.10;0.90;;;;;;;-1.07;94.38;94933.75;5108436;28;20409;-76
2022/01/08 07:33:49;;;;;;;2.30;1.08;;;;;;;-1.03;94.63;94934.94;5103424;28;20036;-76
2022/01/08 07:36:19;;;;;;;1.85;1.27;;;;;;;-0.95;95.04;94934.69;5094778;28;20130;-76
2022/01/08 07:38:46;;;;;;;1.00;0.65;;;;;;;-0.84;94.88;94932.41;5092260;28;20105;-76
2022/01/08 07:41:12;;;;;;;1.17;0.73;;;;;;;-0.81;95.61;94929.41;5091594;28;20059;-75
2022/01/08 07:43:37;;;;;;;0.95;0.65;;;;;;;-0.83;96.98;94939.13;5096565;27;20040;-73
2022/01/08 07:46:03;;;;;;;0.88;0.60;;;;;;;-0.83;97.96;94939.13;5112022;27;20527;-75
2022/01/08 07:48:28;;;;;;;3.33;1.98;;;;;;;-0.88;99.48;94942.34;5093111;28;20047;-75
2022/01/08 07:50:54;;;;;;;3.00;1.50;;;;;;;-0.83;99.42;94939.13;5092888;28;20097;-74
2022/01/08 07:53:19;;;;;;;4.72;1.30;;;;;;;-0.65;99.78;94941.75;5112566;27;20100;-74
2022/01/08 07:55:45;;;;;;;2.50;1.08;;;;;;;-0.70;100.00;94941.63;5098069;27;20041;-74
2022/01/08 07:58:11;;;;;;;4.60;1.90;;;;;;;-0.64;100.00;94943.34;5103831;28;20116;-74
2022/01/08 08:00:37;;;;;;;8.63;1.60;;;;;;;-0.58;100.00;94941.72;5111155;28;20047;-74
2022/01/08 08:03:03;;;;;;;8.45;3.03;;;;;;;-0.59;100.00;94946.09;5103359;28;20096;-73
2022/01/08 08:05:31;;;;;;;2.00;1.50;;;;;;;-0.51;100.00;94946.84;5116228;27;20040;-76
2022/01/08 08:07:57;;;;;;;3.65;1.45;;;;;;;-0.47;100.00;94937.66;5089459;28;20469;-76
2022/01/08 08:10:25;;;;;;;1.90;1.13;;;;;;;-0.44;100.00;94947.56;5086555;28;20055;-75
2022/01/08 08:12:55;;;;;;;1.60;1.00;;;;;;;-0.42;100.00;94945.53;5108824;27;20039;-76
2022/01/08 08:15:22;;;;;;;1.92;1.10;;;;;;;-0.41;100.00;94941.97;5125457;27;20082;-76
2022/01/08 08:17:47;;;;;;;1.98;1.20;;;;;;;-0.35;100.00;94951.44;5098494;28;20040;-75
2022/01/08 08:20:13;;;;;;;2.40;1.40;;;;;;;-0.36;100.00;94950.66;5101786;28;20112;-76
2022/01/08 08:22:39;;;;;;;1.67;0.88;;;;;;;-0.28;100.00;94957.31;5111745;28;20454;-76
2022/01/08 08:25:07;;;;;;;1.35;0.93;;;;;;;-0.14;100.00;94952.00;5109418;27;20047;-76
2022/01/08 08:27:33;;;;;;;1.90;1.08;;;;;;;0.02;100.00;94961.78;5101131;27;20047;-74
2022/01/08 08:29:59;;;;;;;1.17;0.93;;;;;;;0.20;100.00;94965.38;5099210;28;20040;-74
2022/01/08 08:32:24;;;;;;;6.20;1.35;;;;;;;0.22;99.59;94965.97;5098910;28;20391;-76
2022/01/08 08:34:53;;;;;;;1.05;0.90;;;;;;;0.27;98.35;94968.69;5096611;28;20036;-76
2022/01/08 08:37:19;;;;;;;0.82;0.70;;;;;;;0.29;98.20;94971.84;5107400;27;20033;-77
2022/01/08 08:39:45;;;;;;;2.40;1.17;;;;;;;0.38;97.26;94969.75;5101187;28;20066;-76
2022/01/08 08:42:10;;;;;;;3.80;1.10;;;;;;;0.43;96.72;94978.44;5096021;27;20043;-78
2022/01/08 08:44:36;;;;;;;1.65;1.00;;;;;;;0.54;96.06;94978.72;5103383;28;20043;-77
2022/01/08 08:47:03;;;;;;;1.70;1.00;;;;;;;0.54;96.11;94973.53;5092465;28;20066;-76
2022/01/08 08:49:29;;;;;;;1.42;0.80;;;;;;;0.55;95.87;94990.63;5103299;28;20436;-76
2022/01/08 08:51:55;;;;;;;5.85;0.80;;;;;;;0.54;96.97;94994.25;5110996;28;20040;-77
2022/01/08 08:54:21;;;;;;;1.13;0.73;;;;;;;0.38;98.60;94991.25;5109472;28;20061;-76
2022/01/08 08:56:46;;;;;;;2.15;0.95;;;;;;;0.37;98.82;94994.81;5110412;28;20043;-77
2022/01/08 08:59:12;;;;;;;6.78;3.03;;;;;;;0.27;100.00;94999.72;5099922;28;20089;-76
2022/01/08 09:01:38;;;;;;;1.55;1.30;;;;;;;0.32;99.11;95007.66;5107474;28;20047;-77
2022/01/08 09:04:04;;;;;;;1.30;1.00;;;;;;;0.32;99.44;95012.81;5104777;28;20036;-77
2022/01/08 09:06:30;;;;;;;2.05;1.20;;;;;;;0.33;98.60;94998.84;5095987;28;20074;-76
2022/01/08 09:08:56;;;;;;;5.25;1.52;;;;;;;0.40;98.30;95004.75;5107443;28;20404;-75
2022/01/08 09:11:21;;;;;;;2.10;1.23;;;;;;;0.39;97.77;95008.38;5110046;28;20048;-77
2022/01/08 09:13:47;;;;;;;2.15;1.50;;;;;;;0.33;98.63;95030.72;5088643;28;20043;-76
2022/01/08 09:16:13;;;;;;;3.53;1.70;;;;;;;0.20;100.00;95036.03;5111950;28;20035;-73
2022/01/08 09:18:39;;;;;;;12.82;4.88;;;;;;;0.01;100.00;95048.16;5101033;28;20035;-75
2022/01/08 09:21:05;;;;;;;49.33;22.08;;;;;;;-0.01;100.00;95029.50;5098128;27;20145;-76
2022/01/08 09:23:31;;;;;;;17.75;8.77;;;;;;;0.09;100.00;95045.31;5093071;27;20642;-74
2022/01/08 09:25:57;;;;;;;4.10;1.35;;;;;;;0.10;98.50;95057.25;5093150;28;20047;-77
2022/01/08 09:28:23;;;;;;;13.77;6.70;;;;;;;0.16;98.43;95056.38;5094125;27;20043;-78
2022/01/08 09:30:49;;;;;;;1.45;1.10;;;;;;;0.39;97.30;95070.50;5091857;28;20541;-77
2022/01/08 09:33:15;;;;;;;1.13;1.02;;;;;;;0.52;95.30;95065.16;5093373;27;20174;-77
2022/01/08 09:35:41;;;;;;;3.13;1.63;;;;;;;0.78;93.91;95073.63;5107859;28;20059;-76
2022/01/08 09:38:06;;;;;;;3.88;2.70;;;;;;;0.74;92.75;95077.66;5095438;27;20772;-77
2022/01/08 09:40:32;;;;;;;3.85;1.15;;;;;;;0.75;92.43;95079.25;5091954;28;20413;-77
2022/01/08 09:42:58;;;;;;;1.63;1.00;;;;;;;0.62;92.02;95087.19;5096017;28;20047;-78
2022/01/08 09:45:24;;;;;;;19.83;6.53;;;;;;;0.51;90.86;95089.47;5092601;27;20043;-77
2022/01/08 09:47:49;;;;;;;3.90;1.80;;;;;;;0.47;91.00;95101.25;5093035;28;20103;-76
2022/01/08 09:50:15;;;;;;;15.35;4.85;;;;;;;0.55;89.98;95084.66;5090498;28;20054;-77
2022/01/08 09:52:41;;;;;;;1.17;0.90;;;;;;;0.56;90.56;95106.16;5091833;27;20039;-77
2022/01/08 09:55:07;;;;;;;2.47;1.17;;;;;;;0.50;89.63;95118.16;5100555;27;20048;-77
2022/01/08 09:57:32;;;;;;;62.08;14.43;;;;;;;0.52;88.35;95116.94;5101277;28;20043;-78
2022/01/08 09:59:58;;;;;;;10.55;1.40;;;;;;;0.46;87.33;95107.44;5099116;28;20040;-78
2022/01/08 10:02:24;;;;;;;2.95;1.80;;;;;;;0.44;88.38;95124.97;5101108;28;20036;-76
2022/01/08 10:04:50;;;;;;;2.03;1.48;;;;;;;0.61;85.88;95129.59;5095937;28;20028;-77
2022/01/08 10:07:24;;;;;;;1.42;0.70;;;;;;;0.72;85.59;95136.66;5092701;28;20040;-76
2022/01/08 10:10:17;;;;;;;2.17;0.90;;;;;;;0.60;85.45;95138.38;5104573;28;20507;-74
2022/01/08 10:12:48;;;;;;;1.50;0.90;;;;;;;0.65;86.18;95146.31;5098803;28;20089;-77
2022/01/08 10:18:11;;;;;;;0.85;0.85;;;;;;;0.50;86.22;95144.84;5019813;28;20065;-76
2022/01/08 10:20:39;;;;;;;2.30;1.40;;;;;;;0.44;87.23;95153.47;5102477;28;20054;-78
2022/01/08 10:23:11;;;;;;;2.45;1.42;;;;;;;0.55;86.15;95166.69;5101025;28;20473;-76
2022/01/08 10:25:40;;;;;;;3.00;1.35;;;;;;;0.41;86.31;95176.41;5100227;28;20092;-77
2022/01/08 10:28:05;;;;;;;0.80;0.80;;;;;;;0.45;86.52;95162.81;5105573;28;20040;-76
2022/01/08 10:30:31;;;;;;;1.38;1.00;;;;;;;0.41;86.91;95160.88;5103204;28;20043;-76
2022/01/08 10:33:00;;;;;;;2.08;1.02;;;;;;;0.54;86.66;95178.09;5103718;28;20051;-75
2022/01/08 10:35:46;;;;;;;1.65;1.30;;;;;;;0.55;86.58;95171.88;5094547;28;20039;-75
2022/01/08 10:38:11;;;;;;;3.13;1.33;;;;;;;0.62;85.74;95183.78;5099641;27;20063;-76
2022/01/08 10:40:37;;;;;;;2.25;1.38;;;;;;;0.69;85.62;95183.72;5104379;28;20436;-76
2022/01/08 10:43:20;;;;;;;2.45;1.20;;;;;;;0.73;84.79;95190.03;5099209;28;20031;-77
2022/01/08 10:45:46;;;;;;;3.78;1.35;;;;;;;0.64;85.09;95196.50;5085819;28;20104;-76
2022/01/08 10:48:11;;;;;;;2.60;1.35;;;;;;;0.61;84.11;95192.53;5108660;28;20048;-77
2022/01/08 10:50:37;;;;;;;0.88;0.85;;;;;;;1.09;83.24;95198.81;5101190;28;20032;-77
2022/01/08 10:53:03;;;;;;;2.30;1.50;;;;;;;2.93;77.96;95196.50;5107929;28;20408;-77
2022/01/08 10:55:33;;;;;;;2.17;1.20;;;;;;;4.30;71.53;95206.25;5105785;28;20050;-76
2022/01/08 10:57:58;;;;;;;3.75;1.63;;;;;;;5.77;65.91;95198.22;5090776;28;20075;-78
2022/01/08 11:00:32;;;;;;;2.92;1.80;;;;;;;6.20;63.49;95199.94;5106787;28;20129;-78
2022/01/08 11:02:57;;;;;;;4.85;1.90;;;;;;;6.68;62.24;95197.44;5107244;28;20046;-78
2022/01/08 11:05:23;;;;;;;2.38;1.60;;;;;;;5.85;64.05;95200.38;5107936;28;20385;-77
2022/01/08 11:07:48;;;;;;;2.65;1.77;;;;;;;6.15;64.15;95199.91;5106469;28;20039;-78
2022/01/08 11:10:20;;;;;;;1.65;1.38;;;;;;;5.81;62.99;95207.13;5098041;28;20039;-78
2022/01/08 11:12:48;;;;;;;1.65;1.13;;;;;;;3.95;66.47;95212.47;5117461;27;20044;-79
2022/01/08 11:17:54;;;;;;;3.58;1.67;;;;;;;1.93;76.17;95224.09;5102985;27;20070;-77
2022/01/08 11:20:28;;;;;;;2.95;1.85;;;;;;;1.88;77.30;95226.56;5106189;28;20516;-76
2022/01/08 11:22:59;;;;;;;2.90;1.83;;;;;;;1.75;78.72;95227.53;5101786;27;20533;-77
2022/01/08 11:25:32;;;;;;;3.25;1.77;;;;;;;2.04;76.61;95225.13;5111007;28;20050;-77
2022/01/08 11:28:08;;;;;;;9.98;2.17;;;;;;;4.39;70.63;95217.06;5105352;28;20043;-77
2022/01/08 11:30:39;;;;;;;3.97;2.30;;;;;;;3.86;70.96;95221.66;5109314;28;20032;-80
2022/01/08 11:33:15;;;;;;;4.15;2.25;;;;;;;5.50;65.34;95217.25;5105371;28;20039;-77
2022/01/08 11:35:42;;;;;;;3.22;1.65;;;;;;;3.92;66.92;95222.53;5098539;28;20044;-77
2022/01/08 11:38:09;;;;;;;5.43;2.20;;;;;;;2.88;71.32;95224.97;5107160;28;20150;-77
2022/01/08 11:40:37;;;;;;;3.78;1.90;;;;;;;2.49;75.68;95227.25;5092638;28;20499;-76
2022/01/08 11:43:05;;;;;;;5.97;2.13;;;;;;;2.19;77.37;95233.28;5111270;28;20501;-76
2022/01/08 11:45:35;;;;;;;3.42;1.80;;;;;;;3.89;68.48;95221.19;5112211;28;20466;-77
2022/01/08 11:48:04;;;;;;;4.93;2.40;;;;;;;6.14;63.22;95214.00;5096478;28;20059;-77
2022/01/08 11:50:32;;;;;;;6.18;2.50;;;;;;;5.99;61.90;95206.81;5105350;28;20040;-80
2022/01/08 11:53:21;;;;;;;3.15;2.00;;;;;;;5.88;64.29;95212.94;5121533;27;20046;-77
2022/01/08 11:55:48;;;;;;;4.18;2.28;;;;;;;5.17;66.92;95211.91;5101593;28;20062;-78